createdAt,value
2022-11-24T00:02:17.810Z,9.40
2022-11-24T00:04:44.391Z,9.27
2022-11-24T00:07:10.911Z,9.23
2022-11-24T00:09:37.454Z,9.00
2022-11-24T00:12:04.340Z,9.16
2022-11-24T00:14:31.052Z,9.08
2022-11-24T00:16:57.739Z,9.04
2022-11-24T00:19:24.310Z,8.88
2022-11-24T00:21:50.803Z,8.78
2022-11-24T00:24:17.315Z,8.72
2022-11-24T00:26:43.793Z,8.81
2022-11-24T00:29:11.365Z,8.74
2022-11-24T00:31:41.255Z,9.02
2022-11-24T00:34:11.280Z,8.85
2022-11-24T00:36:38.366Z,8.94
2022-11-24T00:39:15.823Z,8.89
2022-11-24T00:41:42.863Z,8.97
2022-11-24T00:44:09.418Z,9.05
2022-11-24T00:46:36.006Z,9.00
2022-11-24T00:49:03.047Z,9.14
2022-11-24T00:51:30.108Z,9.20
2022-11-24T00:53:57.573Z,9.29
2022-11-24T00:56:25.064Z,9.02
2022-11-24T00:58:51.950Z,9.11
2022-11-24T01:01:23.800Z,8.95
2022-11-24T01:03:50.890Z,8.94
2022-11-24T01:06:22.943Z,8.88
2022-11-24T01:08:49.502Z,8.83
2022-11-24T01:11:30.286Z,8.75
2022-11-24T01:13:58.931Z,8.67
2022-11-24T01:16:30.395Z,8.64
2022-11-24T01:18:57.022Z,8.58
2022-11-24T01:21:23.883Z,8.67
2022-11-24T01:23:50.827Z,8.62
2022-11-24T01:26:20.290Z,8.59
2022-11-24T01:28:47.942Z,8.55
2022-11-24T01:31:15.300Z,8.70
2022-11-24T01:33:41.899Z,8.62
2022-11-24T01:36:08.439Z,8.56
2022-11-24T01:38:35.030Z,8.82
2022-11-24T01:41:03.555Z,8.99
2022-11-24T01:43:30.094Z,9.00
2022-11-24T01:45:57.133Z,8.71
2022-11-24T01:48:28.855Z,8.63
2022-11-24T01:51:10.033Z,8.48
2022-11-24T01:53:37.151Z,8.63
2022-11-24T01:56:04.344Z,8.60
2022-11-24T01:58:32.462Z,8.82
2022-11-24T02:00:59.305Z,8.92
2022-11-24T02:03:30.423Z,8.83
2022-11-24T02:06:02.467Z,8.88
2022-11-24T02:08:42.823Z,8.93
2022-11-24T02:11:09.186Z,9.01
2022-11-24T02:13:37.361Z,8.94
2022-11-24T02:16:06.643Z,8.92
2022-11-24T02:18:33.383Z,8.95
2022-11-24T02:21:01.226Z,8.88
2022-11-24T02:23:35.560Z,8.83
2022-11-24T02:26:26.809Z,8.70
2022-11-24T02:28:53.694Z,8.67
2022-11-24T02:31:20.312Z,8.67
2022-11-24T02:33:48.952Z,8.64
2022-11-24T02:36:15.931Z,8.72
2022-11-24T02:38:42.483Z,8.69
2022-11-24T02:41:18.067Z,8.55
2022-11-24T02:43:55.067Z,8.75
2022-11-24T02:46:22.154Z,8.58
2022-11-24T02:48:48.783Z,8.56
2022-11-24T02:51:15.498Z,8.76
2022-11-24T02:53:41.987Z,8.78
2022-11-24T02:56:08.552Z,8.89
2022-11-24T02:58:35.546Z,8.87
2022-11-24T03:01:02.692Z,8.88
2022-11-24T03:03:29.343Z,8.81
2022-11-24T03:05:55.883Z,8.74
2022-11-24T03:08:22.399Z,8.59
2022-11-24T03:10:48.929Z,8.62
2022-11-24T03:13:15.427Z,8.45
2022-11-24T03:15:42.013Z,8.47
2022-11-24T03:18:08.531Z,8.45
2022-11-24T03:20:35.051Z,8.42
2022-11-24T03:23:01.574Z,8.24
2022-11-24T03:25:28.063Z,8.20
2022-11-24T03:27:56.463Z,8.24
2022-11-24T03:30:22.958Z,8.21
2022-11-24T03:32:51.600Z,8.28
2022-11-24T03:35:18.148Z,8.37
2022-11-24T03:37:44.650Z,8.59
2022-11-24T03:40:11.460Z,8.71
2022-11-24T03:42:37.954Z,8.54
2022-11-24T03:45:29.889Z,8.52
2022-11-24T03:47:51.521Z,8.61
2022-11-24T03:50:18.119Z,8.48
2022-11-24T03:52:44.568Z,8.73
2022-11-24T03:55:11.049Z,8.64
2022-11-24T03:57:37.515Z,8.84
2022-11-24T04:00:04.408Z,8.86
2022-11-24T04:02:30.936Z,9.05
2022-11-24T04:04:57.469Z,9.11
2022-11-24T04:07:24.026Z,8.98
2022-11-24T04:09:50.573Z,8.82
2022-11-24T04:12:17.076Z,8.87
2022-11-24T04:14:51.781Z,8.89
2022-11-24T04:17:18.812Z,8.87
2022-11-24T04:19:45.292Z,8.69
2022-11-24T04:22:11.784Z,8.66
2022-11-24T04:24:38.300Z,8.67
2022-11-24T04:27:04.816Z,8.56
2022-11-24T04:29:31.291Z,8.77
2022-11-24T04:31:57.794Z,8.56
2022-11-24T04:34:24.282Z,8.47
2022-11-24T04:36:50.770Z,8.43
2022-11-24T04:39:25.874Z,8.19
2022-11-24T04:41:53.175Z,8.21
2022-11-24T04:44:19.879Z,8.23
2022-11-24T04:46:46.430Z,8.41
2022-11-24T04:49:12.938Z,8.44
2022-11-24T04:51:39.834Z,8.49
2022-11-24T04:54:13.645Z,8.63
2022-11-24T04:56:41.199Z,8.31
2022-11-24T04:59:08.767Z,8.39
2022-11-24T05:01:35.703Z,8.50
2022-11-24T05:04:02.286Z,8.39
2022-11-24T05:06:28.821Z,8.60
2022-11-24T05:08:55.459Z,8.38
2022-11-24T05:11:22.044Z,8.60
2022-11-24T05:13:48.491Z,8.89
2022-11-24T05:16:15.084Z,8.84
2022-11-24T05:18:41.705Z,9.07
2022-11-24T05:21:08.186Z,8.92
2022-11-24T05:23:34.682Z,8.99
2022-11-24T05:26:01.478Z,9.01
2022-11-24T05:28:28.743Z,8.91
2022-11-24T05:30:58.960Z,8.94
2022-11-24T05:33:25.443Z,9.05
2022-11-24T05:35:53.267Z,9.08
2022-11-24T05:38:19.992Z,9.10
2022-11-24T05:40:46.777Z,9.27
2022-11-24T05:43:15.080Z,9.19
2022-11-24T05:45:41.769Z,9.13
2022-11-24T05:48:10.735Z,9.17
2022-11-24T05:50:37.243Z,9.25
2022-11-24T05:53:12.222Z,9.04
2022-11-24T05:55:40.071Z,8.88
2022-11-24T05:58:08.487Z,8.83
2022-11-24T06:00:35.938Z,8.89
2022-11-24T06:03:02.565Z,8.76
2022-11-24T06:05:29.348Z,8.87
2022-11-24T06:07:56.306Z,8.95
2022-11-24T06:10:23.467Z,8.83
2022-11-24T06:12:50.383Z,8.62
2022-11-24T06:15:16.922Z,8.65
2022-11-24T06:17:43.575Z,8.71
2022-11-24T06:20:10.943Z,8.74
2022-11-24T06:22:37.562Z,8.56
2022-11-24T06:25:04.637Z,8.48
2022-11-24T06:27:31.123Z,8.62
2022-11-24T06:29:57.627Z,8.63
2022-11-24T06:32:24.138Z,8.80
2022-11-24T06:34:50.615Z,8.69
2022-11-24T06:37:17.075Z,8.64
2022-11-24T06:39:43.565Z,8.73
2022-11-24T06:42:10.146Z,8.44
2022-11-24T06:44:36.739Z,8.32
2022-11-24T06:47:03.334Z,8.31
2022-11-24T06:49:29.890Z,8.39
2022-11-24T06:51:56.355Z,8.35
2022-11-24T06:54:22.971Z,8.31
2022-11-24T06:56:49.633Z,8.13
2022-11-24T06:59:18.562Z,8.28
2022-11-24T07:01:45.122Z,8.34
2022-11-24T07:04:11.602Z,8.40
2022-11-24T07:06:38.114Z,8.30
2022-11-24T07:09:04.592Z,8.34
2022-11-24T07:11:31.054Z,8.37
2022-11-24T07:14:00.128Z,8.36
2022-11-24T07:16:27.981Z,8.48
2022-11-24T07:18:55.094Z,8.62
2022-11-24T07:21:22.911Z,8.81
2022-11-24T07:23:50.138Z,8.78
2022-11-24T07:26:17.715Z,8.94
2022-11-24T07:28:44.737Z,9.14
2022-11-24T07:31:13.250Z,9.23
2022-11-24T07:33:40.203Z,9.20
2022-11-24T07:36:07.730Z,9.01
2022-11-24T07:38:34.896Z,9.09
2022-11-24T07:41:01.712Z,9.29
2022-11-24T07:43:30.382Z,9.12
2022-11-24T07:45:56.879Z,9.43
2022-11-24T07:48:23.499Z,9.40
2022-11-24T07:50:55.501Z,9.40
2022-11-24T07:53:22.733Z,9.43
2022-11-24T07:55:56.375Z,9.47
2022-11-24T07:58:23.261Z,9.38
2022-11-24T08:00:49.911Z,9.41
2022-11-24T08:03:16.551Z,9.30
2022-11-24T08:06:07.958Z,9.11
2022-11-24T08:08:31.022Z,9.12
2022-11-24T08:10:57.581Z,8.94
2022-11-24T08:13:24.083Z,9.26
2022-11-24T08:15:50.567Z,9.15
2022-11-24T08:18:17.152Z,9.41
2022-11-24T08:20:45.217Z,9.39
2022-11-24T08:23:14.956Z,9.37
2022-11-24T08:25:41.706Z,9.68
2022-11-24T08:28:08.363Z,10.04
2022-11-24T08:30:34.888Z,10.31
2022-11-24T08:33:01.439Z,10.46
2022-11-24T08:35:28.074Z,10.52
2022-11-24T08:37:54.788Z,10.62
2022-11-24T08:40:23.441Z,10.39
2022-11-24T08:42:49.960Z,10.54
2022-11-24T08:45:20.758Z,10.75
2022-11-24T08:47:52.153Z,10.88
2022-11-24T08:50:18.704Z,10.84
2022-11-24T08:52:45.196Z,10.65
2022-11-24T08:55:11.666Z,10.49
2022-11-24T08:57:38.144Z,10.35
2022-11-24T09:00:05.767Z,10.45
2022-11-24T09:02:32.536Z,10.41
2022-11-24T09:04:58.989Z,10.24
2022-11-24T09:07:25.547Z,10.42
2022-11-24T09:09:52.100Z,10.59
2022-11-24T09:12:18.571Z,10.45
2022-11-24T09:14:45.122Z,10.39
2022-11-24T09:17:11.715Z,10.55
2022-11-24T09:19:42.464Z,10.79
2022-11-24T09:22:09.123Z,10.74
2022-11-24T09:24:35.620Z,10.80
2022-11-24T09:27:03.372Z,11.11
2022-11-24T09:29:29.863Z,11.22
2022-11-24T09:31:57.305Z,11.23
2022-11-24T09:34:26.133Z,11.30
2022-11-24T09:36:53.770Z,11.60
2022-11-24T09:39:20.271Z,11.69
2022-11-24T09:42:06.689Z,11.89
2022-11-24T09:44:52.551Z,12.20
2022-11-24T09:47:33.249Z,12.31
2022-11-24T09:50:04.111Z,12.28
2022-11-24T09:52:40.186Z,12.16
2022-11-24T09:55:42.512Z,12.20
2022-11-24T09:58:27.563Z,11.65
2022-11-24T10:00:55.902Z,11.16
2022-11-24T10:03:46.577Z,11.33
2022-11-24T10:06:39.233Z,11.28
2022-11-24T10:09:17.763Z,11.49
2022-11-24T10:11:51.544Z,11.61
2022-11-24T10:14:21.078Z,11.73
2022-11-24T10:17:07.838Z,11.98
2022-11-24T10:19:48.759Z,11.39
2022-11-24T10:22:28.162Z,11.42
2022-11-24T10:25:00.358Z,11.82
2022-11-24T10:27:33.570Z,11.89
2022-11-24T10:30:00.502Z,12.07
2022-11-24T10:32:32.205Z,11.91
2022-11-24T10:35:00.820Z,11.93
2022-11-24T10:37:37.037Z,12.13
2022-11-24T10:40:48.656Z,12.03
2022-11-24T10:43:11.846Z,11.94
2022-11-24T10:45:39.121Z,12.10
2022-11-24T10:48:10.947Z,12.07
2022-11-24T10:50:41.076Z,12.16
2022-11-24T10:53:18.834Z,12.31
2022-11-24T10:55:54.495Z,12.03
2022-11-24T10:58:37.655Z,11.99
2022-11-24T11:01:13.479Z,11.78
2022-11-24T11:03:51.786Z,11.85
2022-11-24T11:06:26.414Z,11.62
2022-11-24T11:09:08.205Z,11.73
2022-11-24T11:11:38.963Z,11.61
2022-11-24T11:14:06.973Z,11.52
2022-11-24T11:16:40.448Z,11.64
2022-11-24T11:19:50.912Z,11.74
2022-11-24T11:22:29.188Z,11.83
2022-11-24T11:25:10.988Z,11.65
2022-11-24T11:27:39.336Z,11.34
2022-11-24T11:36:10.055Z,11.80
2022-11-24T11:38:38.658Z,11.69
2022-11-24T11:41:05.937Z,11.71
2022-11-24T11:43:35.090Z,11.69
2022-11-24T11:46:15.020Z,11.86
2022-11-24T11:48:44.516Z,11.90
2022-11-24T11:51:33.533Z,11.64
2022-11-24T11:54:23.125Z,11.81
2022-11-24T11:57:11.668Z,11.90
2022-11-24T12:00:18.100Z,12.06
2022-11-24T12:03:08.804Z,11.79
2022-11-24T12:05:47.604Z,11.55
2022-11-24T12:08:56.039Z,11.70
2022-11-24T12:11:51.104Z,11.66
2022-11-24T12:14:39.319Z,11.80
2022-11-24T12:17:29.512Z,11.77
2022-11-24T12:20:17.755Z,11.90
2022-11-24T12:22:52.506Z,11.97
2022-11-24T12:25:39.395Z,12.12
2022-11-24T12:28:32.979Z,12.19
2022-11-24T12:31:30.976Z,12.26
2022-11-24T12:34:01.845Z,12.41
2022-11-24T12:37:06.019Z,12.43
2022-11-24T12:39:40.895Z,12.33
2022-11-24T12:42:30.301Z,12.43
2022-11-24T12:45:04.076Z,12.36
2022-11-24T12:47:49.641Z,12.59
2022-11-24T12:50:19.381Z,12.78
2022-11-24T12:52:58.608Z,12.81
2022-11-24T12:55:27.003Z,12.72
2022-11-24T12:58:10.964Z,12.86
2022-11-24T13:01:15.916Z,12.88
2022-11-24T13:04:05.443Z,13.05
2022-11-24T13:06:47.458Z,13.02
2022-11-24T13:09:15.791Z,13.00
2022-11-24T13:11:45.705Z,12.92
2022-11-24T13:14:15.167Z,12.51
2022-11-24T13:17:21.223Z,12.38
2022-11-24T13:19:38.204Z,12.38
2022-11-24T13:22:07.738Z,12.53
2022-11-24T13:24:36.361Z,12.52
2022-11-24T13:27:15.491Z,12.92
2022-11-24T13:29:46.226Z,12.75
2022-11-24T13:32:12.595Z,12.44
2022-11-24T13:34:39.014Z,12.61
2022-11-24T13:37:35.278Z,12.66
2022-11-24T13:40:31.226Z,12.99
2022-11-24T13:42:57.781Z,12.95
2022-11-24T13:45:39.932Z,12.98
2022-11-24T13:48:18.942Z,13.07
2022-11-24T13:50:51.620Z,13.18
2022-11-24T13:53:42.461Z,13.12
2022-11-24T13:56:22.699Z,13.22
2022-11-24T13:58:55.585Z,13.23
2022-11-24T14:01:25.801Z,12.94
2022-11-24T14:07:00.117Z,12.44
2022-11-24T14:09:52.362Z,12.47
2022-11-24T14:12:20.407Z,12.37
2022-11-24T14:14:51.488Z,12.22
2022-11-24T14:17:22.003Z,12.03
2022-11-24T14:19:50.418Z,11.75
2022-11-24T14:22:22.680Z,11.54
2022-11-24T14:24:57.004Z,11.66
2022-11-24T14:27:32.674Z,11.63
2022-11-24T14:30:17.013Z,11.90
2022-11-24T14:33:00.653Z,11.98
2022-11-24T14:35:32.479Z,11.79
2022-11-24T14:38:01.228Z,11.42
2022-11-24T14:40:47.116Z,11.44
2022-11-24T14:43:21.449Z,11.41
2022-11-24T14:45:55.267Z,11.42
2022-11-24T14:48:27.815Z,11.19
2022-11-24T14:51:14.021Z,11.22
2022-11-24T14:53:44.887Z,10.94
2022-11-24T14:56:23.633Z,10.79
2022-11-24T14:58:50.403Z,10.65
2022-11-24T15:01:37.427Z,10.72
2022-11-24T15:04:46.256Z,10.73
2022-11-24T15:07:25.669Z,10.76
2022-11-24T15:09:58.358Z,10.78
2022-11-24T15:12:27.984Z,11.06
2022-11-24T15:14:58.031Z,11.12
2022-11-24T15:17:27.164Z,11.27
2022-11-24T15:20:16.837Z,11.42
2022-11-24T15:22:46.287Z,11.40
2022-11-24T15:25:35.538Z,11.43
2022-11-24T15:28:04.807Z,11.54
2022-11-24T15:30:34.398Z,11.49
2022-11-24T15:33:01.035Z,11.43
2022-11-24T15:35:34.424Z,11.35
2022-11-24T15:38:00.973Z,11.28
2022-11-24T15:40:27.507Z,11.08
2022-11-24T15:42:55.241Z,10.61
2022-11-24T15:45:23.550Z,10.49
2022-11-24T15:47:50.355Z,10.43
2022-11-24T15:50:16.983Z,10.67
2022-11-24T15:52:44.130Z,10.64
2022-11-24T15:55:21.513Z,10.50
2022-11-24T15:57:48.626Z,10.52
2022-11-24T16:00:20.441Z,10.56
2022-11-24T16:02:47.195Z,10.32
2022-11-24T16:05:14.579Z,10.29
2022-11-24T16:07:41.608Z,10.36
2022-11-24T16:10:23.939Z,10.43
2022-11-24T16:12:50.496Z,10.50
2022-11-24T16:15:17.236Z,10.40
2022-11-24T16:17:44.124Z,10.32
2022-11-24T16:20:13.869Z,9.85
2022-11-24T16:22:40.586Z,9.79
2022-11-24T16:25:07.612Z,9.81
2022-11-24T16:27:34.310Z,9.63
2022-11-24T16:30:05.043Z,9.84
2022-11-24T16:32:31.636Z,9.89
2022-11-24T16:34:58.170Z,9.71
2022-11-24T16:37:24.698Z,9.84
2022-11-24T16:39:51.168Z,9.83
2022-11-24T16:42:17.644Z,9.64
2022-11-24T16:44:44.280Z,9.67
2022-11-24T16:47:10.774Z,9.70
2022-11-24T16:49:37.231Z,9.63
2022-11-24T16:52:03.766Z,9.33
2022-11-24T16:54:32.889Z,9.13
2022-11-24T16:56:59.638Z,9.02
2022-11-24T16:59:26.115Z,8.90
2022-11-24T17:01:52.685Z,8.69
2022-11-24T17:04:19.364Z,8.68
2022-11-24T17:06:45.848Z,8.55
2022-11-24T17:09:12.327Z,8.35
2022-11-24T17:11:38.784Z,8.41
2022-11-24T17:14:05.476Z,8.31
2022-11-24T17:16:32.019Z,8.48
2022-11-24T17:18:58.615Z,8.36
2022-11-24T17:21:26.779Z,8.26
2022-11-24T17:23:57.810Z,8.42
2022-11-24T17:26:24.898Z,8.45
2022-11-24T17:28:51.526Z,8.46
2022-11-24T17:31:22.486Z,8.56
2022-11-24T17:33:53.184Z,8.57
2022-11-24T17:36:20.630Z,8.72
2022-11-24T17:38:47.594Z,8.87
2022-11-24T17:41:14.034Z,9.05
2022-11-24T17:43:40.528Z,9.17
2022-11-24T17:46:07.397Z,9.30
2022-11-24T17:48:35.196Z,9.52
2022-11-24T17:51:03.995Z,9.46
2022-11-24T17:53:30.997Z,9.45
2022-11-24T17:56:01.410Z,9.45
2022-11-24T17:58:29.009Z,9.33
2022-11-24T18:00:55.652Z,9.49
2022-11-24T18:03:22.270Z,9.66
2022-11-24T18:05:48.772Z,9.62
2022-11-24T18:08:15.252Z,9.51
2022-11-24T18:10:41.756Z,9.05
2022-11-24T18:13:08.304Z,8.91
2022-11-24T18:15:36.285Z,8.92
2022-11-24T18:18:02.890Z,8.96
2022-11-24T18:20:29.406Z,9.13
2022-11-24T18:23:05.657Z,9.27
2022-11-24T18:25:32.675Z,9.38
2022-11-24T18:27:59.186Z,9.40
2022-11-24T18:30:25.666Z,9.30
2022-11-24T18:32:52.114Z,9.36
2022-11-24T18:35:18.676Z,9.32
2022-11-24T18:37:47.704Z,9.25
2022-11-24T18:40:14.396Z,9.19
2022-11-24T18:42:40.895Z,9.07
2022-11-24T18:45:07.851Z,8.96
2022-11-24T18:47:34.346Z,9.08
2022-11-24T18:50:00.791Z,9.11
2022-11-24T18:52:27.276Z,8.96
2022-11-24T18:54:53.759Z,9.09
2022-11-24T18:57:20.223Z,9.00
2022-11-24T18:59:46.703Z,9.05
2022-11-24T19:02:13.244Z,9.08
2022-11-24T19:04:44.885Z,9.15
2022-11-24T19:07:11.455Z,9.19
2022-11-24T19:09:37.957Z,9.22
2022-11-24T19:12:04.520Z,9.20
2022-11-24T19:14:31.011Z,9.29
2022-11-24T19:17:00.897Z,9.21
2022-11-24T19:19:29.664Z,9.18
2022-11-24T19:21:56.146Z,8.93
2022-11-24T19:24:22.619Z,8.78
2022-11-24T19:26:49.124Z,8.66
2022-11-24T19:29:15.582Z,8.69
2022-11-24T19:31:42.086Z,8.77
2022-11-24T19:34:11.215Z,8.72
2022-11-24T19:36:40.045Z,8.72
2022-11-24T19:39:07.132Z,8.95
2022-11-24T19:41:33.735Z,8.66
2022-11-24T19:44:00.538Z,8.62
2022-11-24T19:46:28.832Z,8.51
2022-11-24T19:48:56.436Z,8.23
2022-11-24T19:51:25.921Z,8.01
2022-11-24T19:53:53.020Z,8.06
2022-11-24T19:56:24.360Z,8.19
2022-11-24T19:58:51.783Z,8.41
2022-11-24T20:01:28.252Z,8.37
2022-11-24T20:04:00.478Z,8.43
2022-11-24T20:06:33.844Z,8.55
2022-11-24T20:09:01.068Z,8.56
2022-11-24T20:11:28.323Z,8.76
2022-11-24T20:13:56.167Z,8.74
2022-11-24T20:16:26.412Z,8.72
2022-11-24T20:18:53.588Z,8.49
2022-11-24T20:21:21.851Z,8.34
2022-11-24T20:23:58.326Z,8.31
2022-11-24T20:26:27.224Z,8.25
2022-11-24T20:28:55.536Z,8.33
2022-11-24T20:31:25.215Z,8.21
2022-11-24T20:33:51.928Z,8.24
2022-11-24T20:36:26.131Z,8.14
2022-11-24T20:38:53.282Z,8.26
2022-11-24T20:41:22.485Z,8.34
2022-11-24T20:43:49.691Z,8.10
2022-11-24T20:46:20.992Z,8.06
2022-11-24T20:48:49.027Z,7.98
2022-11-24T20:51:18.735Z,7.99
2022-11-24T20:53:45.253Z,8.09
2022-11-24T20:56:15.070Z,8.17
2022-11-24T20:58:42.220Z,8.19
2022-11-24T21:01:11.850Z,8.13
2022-11-24T21:03:43.023Z,8.17
2022-11-24T21:06:11.166Z,8.11
2022-11-24T21:08:38.699Z,8.14
2022-11-24T21:11:06.196Z,8.24
2022-11-24T21:13:34.434Z,8.12
2022-11-24T21:16:06.588Z,8.11
2022-11-24T21:18:33.741Z,8.11
2022-11-24T21:21:00.384Z,8.12
2022-11-24T21:23:26.842Z,8.03
2022-11-24T21:25:53.367Z,8.06
2022-11-24T21:28:19.874Z,8.13
2022-11-24T21:30:46.392Z,8.45
2022-11-24T21:33:12.868Z,8.28
2022-11-24T21:35:39.397Z,8.31
2022-11-24T21:38:05.875Z,8.32
2022-11-24T21:40:32.335Z,8.45
2022-11-24T21:42:59.018Z,8.44
2022-11-24T21:45:26.231Z,8.43
2022-11-24T21:47:52.779Z,8.43
2022-11-24T21:50:19.245Z,8.35
2022-11-24T21:52:45.797Z,8.37
2022-11-24T21:55:12.359Z,8.47
2022-11-24T21:57:38.827Z,8.66
2022-11-24T22:00:06.558Z,8.67
2022-11-24T22:02:33.167Z,8.72
2022-11-24T22:04:59.700Z,8.56
2022-11-24T22:07:30.888Z,8.52
2022-11-24T22:09:59.814Z,8.57
2022-11-24T22:12:26.315Z,8.44
2022-11-24T22:14:52.790Z,8.40
2022-11-24T22:17:19.369Z,8.31
2022-11-24T22:19:45.817Z,8.29
2022-11-24T22:22:12.327Z,8.19
2022-11-24T22:24:39.120Z,8.28
2022-11-24T22:27:05.741Z,8.39
2022-11-24T22:29:32.226Z,8.55
2022-11-24T22:31:58.795Z,8.40
2022-11-24T22:34:25.308Z,8.64
2022-11-24T22:36:51.777Z,8.59
2022-11-24T22:39:18.259Z,8.59
2022-11-24T22:41:45.012Z,8.61
2022-11-24T22:44:11.506Z,8.64
2022-11-24T22:46:37.983Z,8.77
2022-11-24T22:49:04.514Z,8.82
2022-11-24T22:51:33.229Z,8.95
2022-11-24T22:54:04.035Z,8.90
2022-11-24T22:56:30.739Z,8.90
2022-11-24T22:58:57.755Z,8.88
2022-11-24T23:01:25.223Z,8.86
2022-11-24T23:03:52.771Z,8.87
2022-11-24T23:06:21.806Z,8.94
2022-11-24T23:08:49.311Z,8.85
2022-11-24T23:11:36.586Z,8.99
2022-11-24T23:14:04.347Z,9.15
2022-11-24T23:16:31.166Z,9.10
2022-11-24T23:18:57.966Z,9.19
2022-11-24T23:21:27.208Z,9.26
2022-11-24T23:23:54.651Z,9.22
2022-11-24T23:26:24.038Z,9.24
2022-11-24T23:28:50.604Z,9.07
2022-11-24T23:31:20.600Z,9.17
2022-11-24T23:33:47.494Z,9.17
2022-11-24T23:36:16.406Z,8.88
2022-11-24T23:38:46.044Z,8.77
2022-11-24T23:41:15.096Z,8.69
2022-11-24T23:43:42.339Z,8.62
2022-11-24T23:46:10.912Z,8.58
2022-11-24T23:48:37.744Z,8.63
2022-11-24T23:51:12.670Z,8.94
2022-11-24T23:53:39.564Z,9.16
2022-11-24T23:56:06.529Z,9.22
2022-11-24T23:58:33.563Z,9.27
